sensor_id;sensor_type;location;lat;lon;timestamp;P1;durP1;ratioP1;P2;durP2;ratioP2
72053;SDS011;59918;51.280;7.950;2023-04-26T00:00:30;5.32;;;2.78;;
72053;SDS011;59918;51.280;7.950;2023-04-26T00:02:57;6.90;;;2.50;;
72053;SDS011;59918;51.280;7.950;2023-04-26T00:05:23;4.40;;;2.47;;
72053;SDS011;59918;51.280;7.950;2023-04-26T00:07:48;5.90;;;2.42;;
72053;SDS011;59918;51.280;7.950;2023-04-26T00:10:14;6.68;;;2.45;;
72053;SDS011;59918;51.280;7.950;2023-04-26T00:12:39;5.43;;;3.20;;
72053;SDS011;59918;51.280;7.950;2023-04-26T00:15:04;11.82;;;3.03;;
72053;SDS011;59918;51.280;7.950;2023-04-26T00:17:30;8.88;;;2.58;;
72053;SDS011;59918;51.280;7.950;2023-04-26T00:19:55;5.15;;;2.67;;
72053;SDS011;59918;51.280;7.950;2023-04-26T00:22:20;6.53;;;2.95;;
72053;SDS011;59918;51.280;7.950;2023-04-26T00:24:45;9.15;;;2.58;;
72053;SDS011;59918;51.280;7.950;2023-04-26T00:27:11;9.88;;;3.88;;
72053;SDS011;59918;51.280;7.950;2023-04-26T00:29:36;9.57;;;2.47;;
72053;SDS011;59918;51.280;7.950;2023-04-26T00:32:01;6.43;;;2.80;;
72053;SDS011;59918;51.280;7.950;2023-04-26T00:34:30;5.05;;;2.63;;
72053;SDS011;59918;51.280;7.950;2023-04-26T00:36:56;8.80;;;2.60;;
72053;SDS011;59918;51.280;7.950;2023-04-26T00:39:22;10.25;;;2.88;;
72053;SDS011;59918;51.280;7.950;2023-04-26T00:41:47;8.70;;;2.97;;
72053;SDS011;59918;51.280;7.950;2023-04-26T00:44:12;8.00;;;2.72;;
72053;SDS011;59918;51.280;7.950;2023-04-26T00:46:37;6.45;;;2.72;;
72053;SDS011;59918;51.280;7.950;2023-04-26T00:49:03;8.63;;;3.10;;
72053;SDS011;59918;51.280;7.950;2023-04-26T00:51:31;4.70;;;2.83;;
72053;SDS011;59918;51.280;7.950;2023-04-26T00:53:56;6.20;;;2.80;;
72053;SDS011;59918;51.280;7.950;2023-04-26T00:56:23;6.47;;;2.80;;
72053;SDS011;59918;51.280;7.950;2023-04-26T00:58:48;9.85;;;3.38;;
72053;SDS011;59918;51.280;7.950;2023-04-26T01:01:13;7.13;;;3.40;;
72053;SDS011;59918;51.280;7.950;2023-04-26T01:03:39;4.63;;;2.90;;
72053;SDS011;59918;51.280;7.950;2023-04-26T01:06:04;10.20;;;3.05;;
72053;SDS011;59918;51.280;7.950;2023-04-26T01:08:29;8.57;;;3.63;;
72053;SDS011;59918;51.280;7.950;2023-04-26T01:10:54;7.97;;;3.13;;
72053;SDS011;59918;51.280;7.950;2023-04-26T01:13:20;10.07;;;3.28;;
72053;SDS011;59918;51.280;7.950;2023-04-26T01:15:45;11.32;;;3.13;;
72053;SDS011;59918;51.280;7.950;2023-04-26T01:18:11;8.77;;;3.13;;
72053;SDS011;59918;51.280;7.950;2023-04-26T01:20:37;8.73;;;3.08;;
72053;SDS011;59918;51.280;7.950;2023-04-26T01:23:02;7.03;;;3.50;;
72053;SDS011;59918;51.280;7.950;2023-04-26T01:25:30;11.52;;;3.03;;
72053;SDS011;59918;51.280;7.950;2023-04-26T01:27:55;12.57;;;3.17;;
72053;SDS011;59918;51.280;7.950;2023-04-26T01:30:21;10.50;;;4.05;;
72053;SDS011;59918;51.280;7.950;2023-04-26T01:32:46;8.88;;;3.20;;
72053;SDS011;59918;51.280;7.950;2023-04-26T01:35:11;6.47;;;2.90;;
72053;SDS011;59918;51.280;7.950;2023-04-26T01:37:36;12.10;;;3.47;;
72053;SDS011;59918;51.280;7.950;2023-04-26T01:40:02;6.47;;;3.15;;
72053;SDS011;59918;51.280;7.950;2023-04-26T01:42:27;8.68;;;3.25;;
72053;SDS011;59918;51.280;7.950;2023-04-26T01:44:52;12.32;;;3.13;;
72053;SDS011;59918;51.280;7.950;2023-04-26T01:47:17;10.32;;;4.00;;
72053;SDS011;59918;51.280;7.950;2023-04-26T01:49:43;9.30;;;3.40;;
72053;SDS011;59918;51.280;7.950;2023-04-26T01:52:08;8.93;;;3.08;;
72053;SDS011;59918;51.280;7.950;2023-04-26T01:54:33;8.85;;;3.30;;
72053;SDS011;59918;51.280;7.950;2023-04-26T01:56:58;7.15;;;3.00;;
72053;SDS011;59918;51.280;7.950;2023-04-26T01:59:24;6.38;;;2.78;;
72053;SDS011;59918;51.280;7.950;2023-04-26T02:01:49;11.05;;;3.20;;
72053;SDS011;59918;51.280;7.950;2023-04-26T02:04:14;5.70;;;3.10;;
72053;SDS011;59918;51.280;7.950;2023-04-26T02:06:39;8.45;;;3.90;;
72053;SDS011;59918;51.280;7.950;2023-04-26T02:09:05;13.80;;;3.97;;
72053;SDS011;59918;51.280;7.950;2023-04-26T02:11:30;11.63;;;3.60;;
72053;SDS011;59918;51.280;7.950;2023-04-26T02:13:55;12.93;;;3.50;;
72053;SDS011;59918;51.280;7.950;2023-04-26T02:16:21;11.82;;;4.03;;
72053;SDS011;59918;51.280;7.950;2023-04-26T02:18:46;9.25;;;3.40;;
72053;SDS011;59918;51.280;7.950;2023-04-26T02:21:11;9.05;;;3.72;;
72053;SDS011;59918;51.280;7.950;2023-04-26T02:23:36;15.32;;;3.28;;
72053;SDS011;59918;51.280;7.950;2023-04-26T02:26:02;8.23;;;3.85;;
72053;SDS011;59918;51.280;7.950;2023-04-26T02:28:28;10.85;;;3.75;;
72053;SDS011;59918;51.280;7.950;2023-04-26T02:30:53;10.02;;;3.60;;
72053;SDS011;59918;51.280;7.950;2023-04-26T02:33:18;14.00;;;4.10;;
72053;SDS011;59918;51.280;7.950;2023-04-26T02:35:43;10.63;;;4.15;;
72053;SDS011;59918;51.280;7.950;2023-04-26T02:38:09;6.80;;;3.85;;
72053;SDS011;59918;51.280;7.950;2023-04-26T02:40:34;11.70;;;4.10;;
72053;SDS011;59918;51.280;7.950;2023-04-26T02:42:59;8.52;;;3.65;;
72053;SDS011;59918;51.280;7.950;2023-04-26T02:45:25;7.82;;;3.42;;
72053;SDS011;59918;51.280;7.950;2023-04-26T02:47:50;5.38;;;3.58;;
72053;SDS011;59918;51.280;7.950;2023-04-26T02:50:15;7.93;;;3.30;;
72053;SDS011;59918;51.280;7.950;2023-04-26T02:52:43;10.82;;;5.15;;
72053;SDS011;59918;51.280;7.950;2023-04-26T02:55:08;14.18;;;4.00;;
72053;SDS011;59918;51.280;7.950;2023-04-26T02:57:33;13.73;;;4.10;;
72053;SDS011;59918;51.280;7.950;2023-04-26T02:59:59;9.32;;;4.78;;
72053;SDS011;59918;51.280;7.950;2023-04-26T03:02:24;13.82;;;4.03;;
72053;SDS011;59918;51.280;7.950;2023-04-26T03:04:50;12.98;;;3.88;;
72053;SDS011;59918;51.280;7.950;2023-04-26T03:07:15;11.75;;;4.00;;
72053;SDS011;59918;51.280;7.950;2023-04-26T03:09:40;10.43;;;4.65;;
72053;SDS011;59918;51.280;7.950;2023-04-26T03:12:10;11.27;;;4.47;;
72053;SDS011;59918;51.280;7.950;2023-04-26T03:14:36;10.60;;;4.00;;
72053;SDS011;59918;51.280;7.950;2023-04-26T03:17:01;8.52;;;4.20;;
72053;SDS011;59918;51.280;7.950;2023-04-26T03:19:26;13.13;;;4.35;;
72053;SDS011;59918;51.280;7.950;2023-04-26T03:21:51;13.75;;;4.38;;
72053;SDS011;59918;51.280;7.950;2023-04-26T03:24:17;15.43;;;4.75;;
72053;SDS011;59918;51.280;7.950;2023-04-26T03:26:48;14.57;;;4.57;;
72053;SDS011;59918;51.280;7.950;2023-04-26T03:29:13;16.00;;;3.83;;
72053;SDS011;59918;51.280;7.950;2023-04-26T03:31:39;10.38;;;3.95;;
72053;SDS011;59918;51.280;7.950;2023-04-26T03:34:04;13.02;;;4.80;;
72053;SDS011;59918;51.280;7.950;2023-04-26T03:36:33;7.53;;;3.67;;
72053;SDS011;59918;51.280;7.950;2023-04-26T03:38:58;16.42;;;4.20;;
72053;SDS011;59918;51.280;7.950;2023-04-26T03:41:24;10.02;;;4.20;;
72053;SDS011;59918;51.280;7.950;2023-04-26T03:43:49;16.27;;;4.63;;
72053;SDS011;59918;51.280;7.950;2023-04-26T03:46:14;18.50;;;6.90;;
72053;SDS011;59918;51.280;7.950;2023-04-26T03:48:39;9.88;;;4.25;;
72053;SDS011;59918;51.280;7.950;2023-04-26T03:51:08;11.52;;;4.43;;
72053;SDS011;59918;51.280;7.950;2023-04-26T03:53:33;14.32;;;4.78;;
72053;SDS011;59918;51.280;7.950;2023-04-26T03:55:59;14.25;;;4.85;;
72053;SDS011;59918;51.280;7.950;2023-04-26T03:58:24;13.35;;;4.97;;
72053;SDS011;59918;51.280;7.950;2023-04-26T04:00:50;14.98;;;4.47;;
72053;SDS011;59918;51.280;7.950;2023-04-26T04:03:15;14.05;;;4.82;;
72053;SDS011;59918;51.280;7.950;2023-04-26T04:05:40;14.95;;;4.45;;
72053;SDS011;59918;51.280;7.950;2023-04-26T04:08:11;16.27;;;4.43;;
72053;SDS011;59918;51.280;7.950;2023-04-26T04:10:36;16.00;;;5.25;;
72053;SDS011;59918;51.280;7.950;2023-04-26T04:13:04;11.38;;;4.90;;
72053;SDS011;59918;51.280;7.950;2023-04-26T04:15:33;10.05;;;4.53;;
72053;SDS011;59918;51.280;7.950;2023-04-26T04:17:58;11.60;;;5.63;;
72053;SDS011;59918;51.280;7.950;2023-04-26T04:20:23;12.07;;;5.85;;
72053;SDS011;59918;51.280;7.950;2023-04-26T04:22:48;12.35;;;4.95;;
72053;SDS011;59918;51.280;7.950;2023-04-26T04:25:14;16.35;;;6.65;;
72053;SDS011;59918;51.280;7.950;2023-04-26T04:27:39;14.80;;;5.70;;
72053;SDS011;59918;51.280;7.950;2023-04-26T04:30:09;14.45;;;5.45;;
72053;SDS011;59918;51.280;7.950;2023-04-26T04:32:35;20.90;;;6.07;;
72053;SDS011;59918;51.280;7.950;2023-04-26T04:35:00;25.58;;;7.25;;
72053;SDS011;59918;51.280;7.950;2023-04-26T04:37:25;19.90;;;6.03;;
72053;SDS011;59918;51.280;7.950;2023-04-26T04:39:51;14.90;;;5.53;;
72053;SDS011;59918;51.280;7.950;2023-04-26T04:42:16;13.63;;;6.07;;
72053;SDS011;59918;51.280;7.950;2023-04-26T04:44:45;14.73;;;5.60;;
72053;SDS011;59918;51.280;7.950;2023-04-26T04:47:11;15.13;;;5.80;;
72053;SDS011;59918;51.280;7.950;2023-04-26T04:49:36;23.23;;;6.30;;
72053;SDS011;59918;51.280;7.950;2023-04-26T04:52:02;16.17;;;5.90;;
72053;SDS011;59918;51.280;7.950;2023-04-26T04:54:28;20.90;;;6.65;;
72053;SDS011;59918;51.280;7.950;2023-04-26T04:56:53;16.10;;;5.85;;
72053;SDS011;59918;51.280;7.950;2023-04-26T04:59:22;18.50;;;7.32;;
72053;SDS011;59918;51.280;7.950;2023-04-26T05:01:49;21.77;;;6.63;;
72053;SDS011;59918;51.280;7.950;2023-04-26T05:04:17;14.10;;;5.47;;
72053;SDS011;59918;51.280;7.950;2023-04-26T05:06:48;15.50;;;6.28;;
72053;SDS011;59918;51.280;7.950;2023-04-26T05:09:14;17.40;;;6.33;;
72053;SDS011;59918;51.280;7.950;2023-04-26T05:11:39;16.38;;;5.75;;
72053;SDS011;59918;51.280;7.950;2023-04-26T05:14:04;17.38;;;5.95;;
72053;SDS011;59918;51.280;7.950;2023-04-26T05:16:29;11.35;;;5.45;;
72053;SDS011;59918;51.280;7.950;2023-04-26T05:19:00;16.88;;;6.47;;
72053;SDS011;59918;51.280;7.950;2023-04-26T05:21:26;13.02;;;6.20;;
72053;SDS011;59918;51.280;7.950;2023-04-26T05:23:51;15.07;;;6.20;;
72053;SDS011;59918;51.280;7.950;2023-04-26T05:26:16;16.33;;;5.15;;
72053;SDS011;59918;51.280;7.950;2023-04-26T05:28:41;13.55;;;5.72;;
72053;SDS011;59918;51.280;7.950;2023-04-26T05:31:13;16.48;;;5.60;;
72053;SDS011;59918;51.280;7.950;2023-04-26T05:33:38;23.60;;;6.03;;
72053;SDS011;59918;51.280;7.950;2023-04-26T05:36:03;16.55;;;6.63;;
72053;SDS011;59918;51.280;7.950;2023-04-26T05:38:29;17.33;;;5.40;;
72053;SDS011;59918;51.280;7.950;2023-04-26T05:41:00;13.13;;;6.90;;
72053;SDS011;59918;51.280;7.950;2023-04-26T05:43:25;12.20;;;6.17;;
72053;SDS011;59918;51.280;7.950;2023-04-26T05:48:16;21.40;;;6.57;;
72053;SDS011;59918;51.280;7.950;2023-04-26T05:50:41;22.88;;;6.38;;
72053;SDS011;59918;51.280;7.950;2023-04-26T05:53:10;19.48;;;6.15;;
72053;SDS011;59918;51.280;7.950;2023-04-26T05:55:35;18.15;;;6.57;;
72053;SDS011;59918;51.280;7.950;2023-04-26T05:58:00;17.58;;;7.90;;
72053;SDS011;59918;51.280;7.950;2023-04-26T06:00:25;17.52;;;6.80;;
72053;SDS011;59918;51.280;7.950;2023-04-26T06:02:51;18.83;;;6.43;;
72053;SDS011;59918;51.280;7.950;2023-04-26T06:05:16;19.58;;;6.40;;
72053;SDS011;59918;51.280;7.950;2023-04-26T06:07:42;18.80;;;7.03;;
72053;SDS011;59918;51.280;7.950;2023-04-26T06:10:10;20.23;;;7.45;;
72053;SDS011;59918;51.280;7.950;2023-04-26T06:12:35;20.27;;;7.50;;
72053;SDS011;59918;51.280;7.950;2023-04-26T06:15:01;19.80;;;7.82;;
72053;SDS011;59918;51.280;7.950;2023-04-26T06:17:26;13.13;;;7.13;;
72053;SDS011;59918;51.280;7.950;2023-04-26T06:19:51;20.67;;;6.95;;
72053;SDS011;59918;51.280;7.950;2023-04-26T06:22:16;17.80;;;6.22;;
72053;SDS011;59918;51.280;7.950;2023-04-26T06:24:47;18.60;;;7.18;;
72053;SDS011;59918;51.280;7.950;2023-04-26T06:27:13;25.33;;;8.15;;
72053;SDS011;59918;51.280;7.950;2023-04-26T06:29:38;17.42;;;7.93;;
72053;SDS011;59918;51.280;7.950;2023-04-26T06:32:03;19.10;;;6.85;;
72053;SDS011;59918;51.280;7.950;2023-04-26T06:34:29;20.48;;;7.95;;
72053;SDS011;59918;51.280;7.950;2023-04-26T06:36:57;17.05;;;7.40;;
72053;SDS011;59918;51.280;7.950;2023-04-26T06:39:23;18.13;;;7.55;;
72053;SDS011;59918;51.280;7.950;2023-04-26T06:41:48;30.52;;;7.57;;
72053;SDS011;59918;51.280;7.950;2023-04-26T06:44:13;16.80;;;7.53;;
72053;SDS011;59918;51.280;7.950;2023-04-26T06:46:38;22.60;;;8.15;;
72053;SDS011;59918;51.280;7.950;2023-04-26T06:49:04;15.43;;;7.10;;
72053;SDS011;59918;51.280;7.950;2023-04-26T06:51:29;15.77;;;7.20;;
72053;SDS011;59918;51.280;7.950;2023-04-26T06:53:54;18.55;;;7.18;;
72053;SDS011;59918;51.280;7.950;2023-04-26T06:56:25;18.48;;;7.30;;
72053;SDS011;59918;51.280;7.950;2023-04-26T06:59:01;21.13;;;6.68;;
72053;SDS011;59918;51.280;7.950;2023-04-26T07:01:28;16.75;;;6.00;;
72053;SDS011;59918;51.280;7.950;2023-04-26T07:04:00;15.95;;;5.95;;
72053;SDS011;59918;51.280;7.950;2023-04-26T07:06:26;15.02;;;6.63;;
72053;SDS011;59918;51.280;7.950;2023-04-26T07:08:51;13.93;;;5.15;;
72053;SDS011;59918;51.280;7.950;2023-04-26T07:11:16;5.47;;;3.75;;
72053;SDS011;59918;51.280;7.950;2023-04-26T07:13:42;10.10;;;5.15;;
72053;SDS011;59918;51.280;7.950;2023-04-26T07:16:10;11.90;;;4.25;;
72053;SDS011;59918;51.280;7.950;2023-04-26T07:18:36;10.85;;;4.07;;
72053;SDS011;59918;51.280;7.950;2023-04-26T07:21:01;13.93;;;3.92;;
72053;SDS011;59918;51.280;7.950;2023-04-26T07:23:27;13.20;;;5.05;;
72053;SDS011;59918;51.280;7.950;2023-04-26T07:25:53;9.23;;;4.22;;
72053;SDS011;59918;51.280;7.950;2023-04-26T07:28:18;11.50;;;3.78;;
72053;SDS011;59918;51.280;7.950;2023-04-26T07:30:47;7.88;;;4.03;;
72053;SDS011;59918;51.280;7.950;2023-04-26T07:33:12;15.38;;;3.88;;
72053;SDS011;59918;51.280;7.950;2023-04-26T07:35:37;11.10;;;3.40;;
72053;SDS011;59918;51.280;7.950;2023-04-26T07:38:02;10.23;;;3.83;;
72053;SDS011;59918;51.280;7.950;2023-04-26T07:40:28;7.82;;;3.63;;
72053;SDS011;59918;51.280;7.950;2023-04-26T07:42:53;9.05;;;4.03;;
72053;SDS011;59918;51.280;7.950;2023-04-26T07:45:19;12.50;;;4.32;;
72053;SDS011;59918;51.280;7.950;2023-04-26T07:47:47;7.30;;;3.90;;
72053;SDS011;59918;51.280;7.950;2023-04-26T07:50:12;14.82;;;4.40;;
72053;SDS011;59918;51.280;7.950;2023-04-26T07:52:38;10.57;;;4.13;;
72053;SDS011;59918;51.280;7.950;2023-04-26T07:55:03;9.73;;;3.50;;
72053;SDS011;59918;51.280;7.950;2023-04-26T07:57:28;4.93;;;3.30;;
72053;SDS011;59918;51.280;7.950;2023-04-26T07:59:54;8.40;;;3.65;;
72053;SDS011;59918;51.280;7.950;2023-04-26T08:02:19;9.30;;;3.50;;
72053;SDS011;59918;51.280;7.950;2023-04-26T08:04:48;8.80;;;3.55;;
72053;SDS011;59918;51.280;7.950;2023-04-26T08:07:16;4.82;;;2.75;;
72053;SDS011;59918;51.280;7.950;2023-04-26T08:09:41;11.13;;;3.08;;
72053;SDS011;59918;51.280;7.950;2023-04-26T08:12:07;5.70;;;2.47;;
72053;SDS011;59918;51.280;7.950;2023-04-26T08:14:41;5.78;;;2.40;;
72053;SDS011;59918;51.280;7.950;2023-04-26T08:17:06;6.32;;;2.58;;
72053;SDS011;59918;51.280;7.950;2023-04-26T08:19:38;9.73;;;2.20;;
72053;SDS011;59918;51.280;7.950;2023-04-26T08:22:03;5.00;;;2.30;;
72053;SDS011;59918;51.280;7.950;2023-04-26T08:24:28;10.13;;;2.65;;
72053;SDS011;59918;51.280;7.950;2023-04-26T08:26:54;7.93;;;2.22;;
72053;SDS011;59918;51.280;7.950;2023-04-26T08:29:19;8.63;;;2.83;;
72053;SDS011;59918;51.280;7.950;2023-04-26T08:31:48;8.35;;;2.30;;
72053;SDS011;59918;51.280;7.950;2023-04-26T08:34:15;9.10;;;1.98;;
72053;SDS011;59918;51.280;7.950;2023-04-26T08:36:40;6.55;;;1.95;;
72053;SDS011;59918;51.280;7.950;2023-04-26T08:39:06;6.20;;;1.90;;
72053;SDS011;59918;51.280;7.950;2023-04-26T08:41:49;9.50;;;2.25;;
72053;SDS011;59918;51.280;7.950;2023-04-26T08:44:18;7.47;;;2.22;;
72053;SDS011;59918;51.280;7.950;2023-04-26T08:49:52;4.22;;;1.30;;
72053;SDS011;59918;51.280;7.950;2023-04-26T08:52:18;1.77;;;1.33;;
72053;SDS011;59918;51.280;7.950;2023-04-26T08:54:48;2.97;;;1.02;;
72053;SDS011;59918;51.280;7.950;2023-04-26T08:57:14;3.72;;;1.17;;
72053;SDS011;59918;51.280;7.950;2023-04-26T08:59:40;3.10;;;1.40;;
72053;SDS011;59918;51.280;7.950;2023-04-26T09:02:06;4.57;;;1.40;;
72053;SDS011;59918;51.280;7.950;2023-04-26T09:04:49;2.75;;;1.50;;
72053;SDS011;59918;51.280;7.950;2023-04-26T09:07:19;2.15;;;1.20;;
72053;SDS011;59918;51.280;7.950;2023-04-26T09:09:48;2.47;;;1.67;;
72053;SDS011;59918;51.280;7.950;2023-04-26T09:12:14;6.90;;;1.38;;
72053;SDS011;59918;51.280;7.950;2023-04-26T09:14:42;3.78;;;2.13;;
72053;SDS011;59918;51.280;7.950;2023-04-26T09:19:52;5.10;;;1.75;;
72053;SDS011;59918;51.280;7.950;2023-04-26T09:23:18;4.60;;;1.98;;
72053;SDS011;59918;51.280;7.950;2023-04-26T09:25:16;6.18;;;2.00;;
72053;SDS011;59918;51.280;7.950;2023-04-26T09:27:52;3.88;;;1.85;;
72053;SDS011;59918;51.280;7.950;2023-04-26T09:30:17;5.20;;;2.03;;
72053;SDS011;59918;51.280;7.950;2023-04-26T09:32:53;9.85;;;2.55;;
72053;SDS011;59918;51.280;7.950;2023-04-26T09:35:26;10.82;;;2.70;;
72053;SDS011;59918;51.280;7.950;2023-04-26T09:40:32;6.38;;;2.00;;
72053;SDS011;59918;51.280;7.950;2023-04-26T09:43:13;5.47;;;2.47;;
72053;SDS011;59918;51.280;7.950;2023-04-26T09:45:52;3.35;;;1.60;;
72053;SDS011;59918;51.280;7.950;2023-04-26T09:48:20;2.42;;;2.20;;
72053;SDS011;59918;51.280;7.950;2023-04-26T09:50:54;4.22;;;1.63;;
72053;SDS011;59918;51.280;7.950;2023-04-26T09:53:40;3.83;;;1.80;;
72053;SDS011;59918;51.280;7.950;2023-04-26T09:56:13;4.35;;;2.17;;
72053;SDS011;59918;51.280;7.950;2023-04-26T10:01:17;4.85;;;1.50;;
72053;SDS011;59918;51.280;7.950;2023-04-26T10:03:43;4.03;;;2.25;;
72053;SDS011;59918;51.280;7.950;2023-04-26T10:06:12;3.53;;;1.70;;
72053;SDS011;59918;51.280;7.950;2023-04-26T10:08:37;5.80;;;1.80;;
72053;SDS011;59918;51.280;7.950;2023-04-26T10:11:03;2.38;;;1.77;;
72053;SDS011;59918;51.280;7.950;2023-04-26T10:13:36;5.80;;;1.90;;
72053;SDS011;59918;51.280;7.950;2023-04-26T10:18:27;3.30;;;1.60;;
72053;SDS011;59918;51.280;7.950;2023-04-26T10:20:55;9.38;;;1.80;;
72053;SDS011;59918;51.280;7.950;2023-04-26T10:23:40;5.35;;;1.98;;
72053;SDS011;59918;51.280;7.950;2023-04-26T10:26:05;2.58;;;1.90;;
72053;SDS011;59918;51.280;7.950;2023-04-26T10:31:14;2.60;;;1.88;;
72053;SDS011;59918;51.280;7.950;2023-04-26T10:33:39;3.33;;;1.80;;
72053;SDS011;59918;51.280;7.950;2023-04-26T10:36:14;3.15;;;1.75;;
72053;SDS011;59918;51.280;7.950;2023-04-26T10:41:43;3.88;;;1.70;;
72053;SDS011;59918;51.280;7.950;2023-04-26T10:47:06;10.98;;;2.20;;
72053;SDS011;59918;51.280;7.950;2023-04-26T10:49:44;4.07;;;1.73;;
72053;SDS011;59918;51.280;7.950;2023-04-26T10:52:19;3.58;;;1.92;;
72053;SDS011;59918;51.280;7.950;2023-04-26T10:54:52;3.47;;;2.15;;
72053;SDS011;59918;51.280;7.950;2023-04-26T11:00:26;8.73;;;1.90;;
72053;SDS011;59918;51.280;7.950;2023-04-26T11:13:38;7.80;;;1.90;;
72053;SDS011;59918;51.280;7.950;2023-04-26T11:16:08;4.88;;;1.75;;
72053;SDS011;59918;51.280;7.950;2023-04-26T11:18:43;2.20;;;1.17;;
72053;SDS011;59918;51.280;7.950;2023-04-26T11:21:12;4.55;;;1.52;;
72053;SDS011;59918;51.280;7.950;2023-04-26T11:23:38;2.67;;;1.70;;
72053;SDS011;59918;51.280;7.950;2023-04-26T11:26:04;3.83;;;1.60;;
72053;SDS011;59918;51.280;7.950;2023-04-26T11:28:31;5.90;;;1.55;;
72053;SDS011;59918;51.280;7.950;2023-04-26T11:31:01;3.40;;;1.42;;
72053;SDS011;59918;51.280;7.950;2023-04-26T11:33:27;4.82;;;1.58;;
72053;SDS011;59918;51.280;7.950;2023-04-26T11:35:54;5.68;;;2.08;;
72053;SDS011;59918;51.280;7.950;2023-04-26T11:38:24;3.60;;;2.20;;
72053;SDS011;59918;51.280;7.950;2023-04-26T11:41:00;2.80;;;1.73;;
72053;SDS011;59918;51.280;7.950;2023-04-26T11:43:36;5.28;;;1.60;;
72053;SDS011;59918;51.280;7.950;2023-04-26T11:46:03;4.43;;;1.90;;
72053;SDS011;59918;51.280;7.950;2023-04-26T11:48:32;6.32;;;2.05;;
72053;SDS011;59918;51.280;7.950;2023-04-26T11:51:02;2.22;;;1.58;;
72053;SDS011;59918;51.280;7.950;2023-04-26T11:53:39;2.53;;;2.00;;
72053;SDS011;59918;51.280;7.950;2023-04-26T11:56:12;3.72;;;1.73;;
72053;SDS011;59918;51.280;7.950;2023-04-26T11:59:23;3.38;;;1.90;;
72053;SDS011;59918;51.280;7.950;2023-04-26T12:01:29;3.67;;;1.58;;
72053;SDS011;59918;51.280;7.950;2023-04-26T12:03:55;6.20;;;2.10;;
72053;SDS011;59918;51.280;7.950;2023-04-26T12:06:28;5.65;;;2.00;;
72053;SDS011;59918;51.280;7.950;2023-04-26T12:08:55;3.53;;;2.20;;
72053;SDS011;59918;51.280;7.950;2023-04-26T12:11:26;7.75;;;2.30;;
72053;SDS011;59918;51.280;7.950;2023-04-26T12:13:51;8.48;;;3.75;;
72053;SDS011;59918;51.280;7.950;2023-04-26T12:16:17;5.18;;;2.60;;
72053;SDS011;59918;51.280;7.950;2023-04-26T12:18:48;4.30;;;2.53;;
72053;SDS011;59918;51.280;7.950;2023-04-26T12:23:39;4.03;;;2.50;;
72053;SDS011;59918;51.280;7.950;2023-04-26T12:26:05;4.25;;;3.00;;
72053;SDS011;59918;51.280;7.950;2023-04-26T12:28:31;4.15;;;2.70;;
72053;SDS011;59918;51.280;7.950;2023-04-26T12:30:59;6.13;;;2.63;;
72053;SDS011;59918;51.280;7.950;2023-04-26T12:33:25;6.97;;;2.00;;
72053;SDS011;59918;51.280;7.950;2023-04-26T12:35:50;4.93;;;2.25;;
72053;SDS011;59918;51.280;7.950;2023-04-26T12:38:16;3.90;;;1.85;;
72053;SDS011;59918;51.280;7.950;2023-04-26T12:40:42;3.42;;;2.03;;
72053;SDS011;59918;51.280;7.950;2023-04-26T12:43:07;5.53;;;2.65;;
72053;SDS011;59918;51.280;7.950;2023-04-26T12:45:36;5.07;;;2.33;;
72053;SDS011;59918;51.280;7.950;2023-04-26T12:48:01;5.97;;;2.95;;
72053;SDS011;59918;51.280;7.950;2023-04-26T12:50:26;4.57;;;2.63;;
72053;SDS011;59918;51.280;7.950;2023-04-26T12:52:52;3.45;;;2.35;;
72053;SDS011;59918;51.280;7.950;2023-04-26T12:55:17;4.55;;;2.15;;
72053;SDS011;59918;51.280;7.950;2023-04-26T12:57:43;4.93;;;2.60;;
72053;SDS011;59918;51.280;7.950;2023-04-26T13:00:12;2.38;;;2.17;;
72053;SDS011;59918;51.280;7.950;2023-04-26T13:02:39;6.07;;;2.63;;
72053;SDS011;59918;51.280;7.950;2023-04-26T13:05:05;4.57;;;2.45;;
72053;SDS011;59918;51.280;7.950;2023-04-26T13:07:31;4.70;;;2.42;;
72053;SDS011;59918;51.280;7.950;2023-04-26T13:10:00;7.05;;;2.67;;
72053;SDS011;59918;51.280;7.950;2023-04-26T13:12:26;5.45;;;2.65;;
72053;SDS011;59918;51.280;7.950;2023-04-26T13:14:52;3.30;;;2.53;;
72053;SDS011;59918;51.280;7.950;2023-04-26T13:17:18;4.60;;;2.88;;
72053;SDS011;59918;51.280;7.950;2023-04-26T13:19:43;6.10;;;2.92;;
72053;SDS011;59918;51.280;7.950;2023-04-26T13:22:14;5.10;;;2.78;;
72053;SDS011;59918;51.280;7.950;2023-04-26T13:24:40;7.82;;;6.35;;
72053;SDS011;59918;51.280;7.950;2023-04-26T13:27:05;5.45;;;4.38;;
72053;SDS011;59918;51.280;7.950;2023-04-26T13:29:30;5.68;;;3.25;;
72053;SDS011;59918;51.280;7.950;2023-04-26T13:31:59;5.15;;;3.72;;
72053;SDS011;59918;51.280;7.950;2023-04-26T13:34:25;4.40;;;3.38;;
72053;SDS011;59918;51.280;7.950;2023-04-26T13:36:51;5.70;;;3.00;;
72053;SDS011;59918;51.280;7.950;2023-04-26T13:39:16;7.28;;;3.22;;
72053;SDS011;59918;51.280;7.950;2023-04-26T13:41:42;4.80;;;2.83;;
72053;SDS011;59918;51.280;7.950;2023-04-26T13:44:07;7.20;;;2.80;;
72053;SDS011;59918;51.280;7.950;2023-04-26T13:46:42;7.93;;;2.92;;
72053;SDS011;59918;51.280;7.950;2023-04-26T13:49:07;6.10;;;2.35;;
72053;SDS011;59918;51.280;7.950;2023-04-26T13:51:41;4.07;;;2.50;;
72053;SDS011;59918;51.280;7.950;2023-04-26T13:54:07;5.47;;;2.40;;
72053;SDS011;59918;51.280;7.950;2023-04-26T13:56:38;11.18;;;3.58;;
72053;SDS011;59918;51.280;7.950;2023-04-26T13:59:03;4.57;;;2.47;;
72053;SDS011;59918;51.280;7.950;2023-04-26T14:01:28;5.55;;;2.70;;
72053;SDS011;59918;51.280;7.950;2023-04-26T14:03:54;3.67;;;2.65;;
72053;SDS011;59918;51.280;7.950;2023-04-26T14:06:19;7.38;;;2.78;;
72053;SDS011;59918;51.280;7.950;2023-04-26T14:08:48;5.60;;;3.28;;
72053;SDS011;59918;51.280;7.950;2023-04-26T14:11:13;5.03;;;3.15;;
72053;SDS011;59918;51.280;7.950;2023-04-26T14:13:39;4.22;;;3.10;;
72053;SDS011;59918;51.280;7.950;2023-04-26T14:16:05;9.85;;;5.40;;
72053;SDS011;59918;51.280;7.950;2023-04-26T14:18:30;4.78;;;3.15;;
72053;SDS011;59918;51.280;7.950;2023-04-26T14:20:55;5.78;;;3.38;;
72053;SDS011;59918;51.280;7.950;2023-04-26T14:23:24;5.43;;;3.10;;
72053;SDS011;59918;51.280;7.950;2023-04-26T14:25:52;5.47;;;2.88;;
72053;SDS011;59918;51.280;7.950;2023-04-26T14:28:18;7.47;;;3.80;;
72053;SDS011;59918;51.280;7.950;2023-04-26T14:30:43;5.93;;;3.30;;
72053;SDS011;59918;51.280;7.950;2023-04-26T14:33:12;7.28;;;3.97;;
72053;SDS011;59918;51.280;7.950;2023-04-26T14:35:37;10.82;;;4.05;;
72053;SDS011;59918;51.280;7.950;2023-04-26T14:38:03;4.28;;;3.17;;
72053;SDS011;59918;51.280;7.950;2023-04-26T14:40:28;5.57;;;2.85;;
72053;SDS011;59918;51.280;7.950;2023-04-26T14:42:54;4.28;;;3.03;;
72053;SDS011;59918;51.280;7.950;2023-04-26T14:45:19;6.03;;;3.53;;
72053;SDS011;59918;51.280;7.950;2023-04-26T14:47:44;6.35;;;3.22;;
72053;SDS011;59918;51.280;7.950;2023-04-26T14:50:12;17.40;;;10.57;;
72053;SDS011;59918;51.280;7.950;2023-04-26T14:52:38;7.45;;;3.80;;
72053;SDS011;59918;51.280;7.950;2023-04-26T14:55:03;6.20;;;3.33;;
72053;SDS011;59918;51.280;7.950;2023-04-26T14:57:29;7.18;;;3.47;;
72053;SDS011;59918;51.280;7.950;2023-04-26T14:59:55;4.63;;;3.10;;
72053;SDS011;59918;51.280;7.950;2023-04-26T15:02:20;6.22;;;3.90;;
72053;SDS011;59918;51.280;7.950;2023-04-26T15:04:45;6.00;;;3.45;;
72053;SDS011;59918;51.280;7.950;2023-04-26T15:07:16;6.00;;;3.92;;
72053;SDS011;59918;51.280;7.950;2023-04-26T15:09:44;4.63;;;3.13;;
72053;SDS011;59918;51.280;7.950;2023-04-26T15:12:09;4.90;;;3.47;;
72053;SDS011;59918;51.280;7.950;2023-04-26T15:14:37;7.60;;;3.90;;
72053;SDS011;59918;51.280;7.950;2023-04-26T15:17:02;9.70;;;3.60;;
72053;SDS011;59918;51.280;7.950;2023-04-26T15:19:28;5.65;;;3.25;;
72053;SDS011;59918;51.280;7.950;2023-04-26T15:21:53;5.95;;;3.42;;